Time;durP1;ratioP1;P1;durP2;ratioP2;P2;SDS_P1;SDS_P2;PMS_P1;PMS_P2;Temp;Humidity;BMP_temperature;BMP_pressure;BME280_temperature;BME280_humidity;BME280_pressure;Samples;Min_cycle;Max_cycle;Signal;HPM_P1;HPM_P2
2022/06/26 00:00:00;;;;;;;0.50;0.30;;;19.40;99.90;;;;;;5140748;22;20486;-76
2022/06/26 00:02:28;;;;;;;0.50;0.40;;;19.30;99.90;;;;;;5096992;28;20514;-79
2022/06/26 00:04:55;;;;;;;0.57;0.50;;;19.20;99.90;;;;;;5110537;28;20529;-79
2022/06/26 00:07:22;;;;;;;0.50;0.30;;;19.20;99.90;;;;;;5113455;28;20518;-76
2022/06/26 00:09:49;;;;;;;0.60;0.40;;;19.20;99.90;;;;;;5114490;28;20847;-79
2022/06/26 00:12:16;;;;;;;0.50;0.40;;;19.20;99.90;;;;;;5112804;28;20450;-79
2022/06/26 00:14:43;;;;;;;2.20;2.10;;;19.20;99.90;;;;;;5113996;28;20884;-79
2022/06/26 00:17:10;;;;;;;0.50;0.40;;;19.10;99.90;;;;;;5113942;28;20484;-79
2022/06/26 00:19:38;;;;;;;0.50;0.30;;;19.10;99.90;;;;;;5113639;28;20461;-79
2022/06/26 00:22:06;;;;;;;0.50;0.40;;;19.10;99.90;;;;;;5113633;28;20544;-79
2022/06/26 00:24:33;;;;;;;0.50;0.40;;;19.10;99.90;;;;;;5113567;28;20434;-79
2022/06/26 00:27:02;;;;;;;1.13;1.03;;;19.10;99.90;;;;;;5113502;28;20449;-78
2022/06/26 00:29:29;;;;;;;0.50;0.30;;;19.10;99.90;;;;;;5113395;28;20473;-78
2022/06/26 00:31:56;;;;;;;1.60;0.63;;;19.20;99.90;;;;;;5113285;28;20522;-76
2022/06/26 00:34:23;;;;;;;0.50;0.30;;;19.20;99.90;;;;;;5113482;28;20439;-79
2022/06/26 00:36:51;;;;;;;0.50;0.40;;;19.20;99.90;;;;;;5113044;28;20522;-80
2022/06/26 00:39:18;;;;;;;0.50;0.30;;;19.10;99.90;;;;;;5112967;28;20450;-79
2022/06/26 00:41:45;;;;;;;0.50;0.30;;;19.10;99.90;;;;;;5113509;28;20444;-79
2022/06/26 00:44:16;;;;;;;0.50;0.30;;;19.00;99.90;;;;;;5113857;28;20440;-79
2022/06/26 00:46:43;;;;;;;0.50;0.30;;;18.80;99.90;;;;;;5114100;28;20531;-80
2022/06/26 00:49:11;;;;;;;0.50;0.33;;;18.80;99.90;;;;;;5113834;28;20445;-78
2022/06/26 00:51:41;;;;;;;0.50;0.33;;;18.70;99.90;;;;;;5113993;28;20501;-80
2022/06/26 00:54:09;;;;;;;0.50;0.40;;;18.50;99.90;;;;;;5113346;28;20512;-79
2022/06/26 00:56:37;;;;;;;0.50;0.40;;;18.50;99.90;;;;;;5114127;28;20538;-80
2022/06/26 00:59:05;;;;;;;0.50;0.30;;;18.40;99.90;;;;;;5113358;28;20943;-80
2022/06/26 01:01:34;;;;;;;0.50;0.40;;;18.40;99.90;;;;;;5113642;28;20440;-79
2022/06/26 01:04:01;;;;;;;0.50;0.40;;;18.40;99.90;;;;;;5113720;28;20488;-78
2022/06/26 01:06:28;;;;;;;0.50;0.30;;;18.40;99.90;;;;;;5113605;28;20537;-80
2022/06/26 01:08:56;;;;;;;0.50;0.30;;;18.40;99.90;;;;;;5113200;28;20521;-79
2022/06/26 01:11:25;;;;;;;0.50;0.30;;;18.40;99.90;;;;;;5113662;28;20523;-79
2022/06/26 01:13:54;;;;;;;0.50;0.30;;;18.40;99.90;;;;;;5113345;28;20445;-79
2022/06/26 01:16:22;;;;;;;1.17;1.03;;;18.40;99.90;;;;;;5113147;28;20507;-78
2022/06/26 01:18:51;;;;;;;0.50;0.40;;;18.40;99.90;;;;;;5113239;28;20518;-79
2022/06/26 01:21:20;;;;;;;0.50;0.30;;;18.40;99.90;;;;;;5112819;28;20442;-79
2022/06/26 01:23:50;;;;;;;0.50;0.33;;;18.40;99.90;;;;;;5113044;28;20468;-79
2022/06/26 01:26:17;;;;;;;0.80;0.73;;;18.40;99.90;;;;;;5113062;28;20426;-78
2022/06/26 01:28:44;;;;;;;3.13;1.07;;;18.40;99.90;;;;;;5112267;28;20443;-79
2022/06/26 01:31:11;;;;;;;1.47;0.87;;;18.30;99.90;;;;;;5112715;28;21007;-78
2022/06/26 01:33:38;;;;;;;0.50;0.30;;;18.30;99.90;;;;;;5112785;28;20529;-78
2022/06/26 01:36:06;;;;;;;0.50;0.40;;;18.20;99.90;;;;;;5112813;28;20964;-78
2022/06/26 01:38:33;;;;;;;0.50;0.30;;;18.20;99.90;;;;;;5112101;28;20534;-78
2022/06/26 01:41:02;;;;;;;0.50;0.30;;;18.20;99.90;;;;;;5112638;28;20447;-79
2022/06/26 01:43:31;;;;;;;0.50;0.30;;;18.10;99.90;;;;;;5112654;28;20459;-79
2022/06/26 01:46:00;;;;;;;0.50;0.30;;;18.00;99.90;;;;;;5112940;28;20464;-78
2022/06/26 01:48:28;;;;;;;0.50;0.40;;;18.00;99.90;;;;;;5111654;28;20430;-79
2022/06/26 01:50:59;;;;;;;0.50;0.30;;;18.00;99.90;;;;;;5112343;28;21063;-76
2022/06/26 01:53:27;;;;;;;0.50;0.40;;;18.00;99.90;;;;;;5112127;28;20534;-79
2022/06/26 01:55:54;;;;;;;0.50;0.30;;;17.90;99.90;;;;;;5112486;28;20520;-79
2022/06/26 01:58:22;;;;;;;0.50;0.40;;;17.90;99.90;;;;;;5111741;28;20438;-79
2022/06/26 02:00:50;;;;;;;0.50;0.30;;;17.80;99.90;;;;;;5112276;28;20470;-79
2022/06/26 02:03:17;;;;;;;0.50;0.30;;;17.80;99.90;;;;;;5111766;28;20445;-79
2022/06/26 02:05:45;;;;;;;0.50;0.30;;;17.80;99.90;;;;;;5112161;28;20942;-77
2022/06/26 02:08:12;;;;;;;0.50;0.40;;;17.70;99.90;;;;;;5112099;28;20433;-80
2022/06/26 02:13:39;;;;;;;0.50;0.40;;;17.70;99.90;;;;;;5112266;28;20416;-77
2022/06/26 02:16:09;;;;;;;0.80;0.50;;;17.70;99.90;;;;;;5112213;28;20469;-78
2022/06/26 02:18:36;;;;;;;0.50;0.30;;;17.70;99.90;;;;;;5112263;28;20430;-78
2022/06/26 02:21:06;;;;;;;0.50;0.30;;;17.70;99.90;;;;;;5111295;28;20544;-78
2022/06/26 02:23:33;;;;;;;0.50;0.40;;;17.70;99.90;;;;;;5111386;28;20444;-79
2022/06/26 02:26:00;;;;;;;0.50;0.50;;;17.60;99.90;;;;;;5112188;28;20441;-79
2022/06/26 02:28:28;;;;;;;0.50;0.40;;;17.60;99.90;;;;;;5112069;28;20523;-79
2022/06/26 02:30:55;;;;;;;0.50;0.40;;;17.60;99.90;;;;;;5111650;28;20477;-76
2022/06/26 02:33:23;;;;;;;0.50;0.30;;;17.60;99.90;;;;;;5111999;28;20537;-79
2022/06/26 02:35:50;;;;;;;0.67;0.67;;;17.60;99.90;;;;;;5111672;28;20442;-78
2022/06/26 02:38:17;;;;;;;0.50;0.30;;;17.60;99.90;;;;;;5111370;28;20437;-77
2022/06/26 02:40:45;;;;;;;0.50;0.30;;;17.60;99.90;;;;;;5112101;28;20737;-79
2022/06/26 02:43:12;;;;;;;0.50;0.30;;;17.60;99.90;;;;;;5111944;28;20438;-79
2022/06/26 02:45:41;;;;;;;0.50;0.30;;;17.60;99.90;;;;;;5111553;28;20441;-78
2022/06/26 02:48:08;;;;;;;0.50;0.30;;;17.50;99.90;;;;;;5111225;28;21023;-78
2022/06/26 02:50:35;;;;;;;0.50;0.40;;;17.40;99.90;;;;;;5111671;28;20474;-79
2022/06/26 02:53:02;;;;;;;0.50;0.40;;;17.50;99.90;;;;;;5111488;28;20533;-78
2022/06/26 02:55:29;;;;;;;1.07;0.63;;;17.40;99.90;;;;;;5111515;28;20470;-78
2022/06/26 02:57:55;;;;;;;0.50;0.30;;;17.40;99.90;;;;;;5111070;28;20525;-78
2022/06/26 03:00:22;;;;;;;0.50;0.30;;;17.40;99.90;;;;;;5112760;28;20582;-78
2022/06/26 03:02:50;;;;;;;0.50;0.50;;;17.30;99.90;;;;;;5115486;28;20819;-79
2022/06/26 03:05:17;;;;;;;0.50;0.40;;;17.30;99.90;;;;;;5115622;28;21052;-78
2022/06/26 03:07:44;;;;;;;0.60;0.60;;;17.20;99.90;;;;;;5114899;28;20513;-79
2022/06/26 03:10:11;;;;;;;0.83;0.83;;;17.20;99.90;;;;;;5115237;28;20565;-77
2022/06/26 03:12:46;;;;;;;0.83;0.73;;;17.20;99.90;;;;;;5114947;28;20528;-79
2022/06/26 03:15:13;;;;;;;0.50;0.40;;;17.20;99.90;;;;;;5115128;28;20520;-78
2022/06/26 03:17:40;;;;;;;0.50;0.30;;;17.30;99.90;;;;;;5114698;28;20502;-77
2022/06/26 03:20:10;;;;;;;0.50;0.37;;;17.30;99.90;;;;;;5115138;28;20570;-79
2022/06/26 03:22:37;;;;;;;0.60;0.60;;;17.20;99.90;;;;;;5114382;28;20444;-78
2022/06/26 03:25:04;;;;;;;0.50;0.30;;;17.20;99.90;;;;;;5114863;28;20446;-77
2022/06/26 03:27:31;;;;;;;0.63;0.63;;;17.20;99.90;;;;;;5114950;28;20886;-78
2022/06/26 03:29:58;;;;;;;0.50;0.43;;;17.10;99.90;;;;;;5114810;28;20533;-79
2022/06/26 03:32:25;;;;;;;0.50;0.30;;;17.20;99.90;;;;;;5114719;28;20438;-77
2022/06/26 03:34:52;;;;;;;0.50;0.40;;;17.20;99.90;;;;;;5115036;28;20525;-77
2022/06/26 03:37:21;;;;;;;2.27;2.07;;;17.20;99.90;;;;;;5115761;28;20517;-77
2022/06/26 03:39:48;;;;;;;0.60;0.60;;;17.20;99.90;;;;;;5115507;28;20906;-78
2022/06/26 03:42:15;;;;;;;0.60;0.53;;;17.30;99.90;;;;;;5115881;28;20520;-78
2022/06/26 03:44:41;;;;;;;0.80;0.80;;;17.40;99.90;;;;;;5115373;28;20529;-77
2022/06/26 03:47:08;;;;;;;1.70;1.60;;;17.40;99.90;;;;;;5115284;28;20529;-79
2022/06/26 03:49:35;;;;;;;24.93;3.27;;;17.40;99.90;;;;;;5115179;28;20463;-78
2022/06/26 03:52:03;;;;;;;0.50;0.30;;;17.50;99.90;;;;;;5115383;28;20561;-77
2022/06/26 03:54:32;;;;;;;0.50;0.40;;;17.50;99.90;;;;;;5114990;28;20445;-78
2022/06/26 03:56:59;;;;;;;0.70;0.70;;;17.50;99.90;;;;;;5115043;28;20503;-78
2022/06/26 03:59:26;;;;;;;7.93;2.63;;;17.50;99.90;;;;;;5114205;28;20479;-79
2022/06/26 04:01:53;;;;;;;0.50;0.30;;;17.60;99.90;;;;;;5115006;28;20423;-78
2022/06/26 04:04:19;;;;;;;2.10;1.00;;;17.60;99.90;;;;;;5114447;28;20456;-78
2022/06/26 04:06:46;;;;;;;0.97;0.73;;;17.60;99.90;;;;;;5114889;28;20438;-78
2022/06/26 04:09:13;;;;;;;0.50;0.40;;;17.60;99.90;;;;;;5114680;28;20466;-77
2022/06/26 04:11:41;;;;;;;0.93;0.70;;;17.60;99.90;;;;;;5114527;28;20478;-77
2022/06/26 04:14:08;;;;;;;1.13;0.70;;;17.70;99.90;;;;;;5113952;28;20530;-78
2022/06/26 04:16:35;;;;;;;0.70;0.63;;;17.70;99.90;;;;;;5114587;28;20532;-78
2022/06/26 04:19:02;;;;;;;0.50;0.37;;;17.70;99.90;;;;;;5116854;28;20430;-78
2022/06/26 04:21:29;;;;;;;0.50;0.47;;;17.70;99.90;;;;;;5119533;28;20521;-77
2022/06/26 04:23:56;;;;;;;0.70;0.70;;;17.70;99.90;;;;;;5118978;28;21025;-78
2022/06/26 04:26:23;;;;;;;0.73;0.73;;;17.80;99.90;;;;;;5119383;28;20885;-78
2022/06/26 04:28:51;;;;;;;0.50;0.40;;;17.80;99.90;;;;;;5119553;28;20863;-79
2022/06/26 04:31:18;;;;;;;0.50;0.40;;;17.90;99.90;;;;;;5118509;28;20572;-78
2022/06/26 04:33:45;;;;;;;0.60;0.50;;;18.10;99.90;;;;;;5117493;28;20798;-78
2022/06/26 04:36:12;;;;;;;3.17;1.30;;;18.20;99.90;;;;;;5114079;28;20875;-78
2022/06/26 04:38:39;;;;;;;2.73;2.00;;;18.20;99.90;;;;;;5113985;28;20488;-78
2022/06/26 04:43:47;;;;;;;1.83;1.57;;;18.30;99.90;;;;;;5112631;28;20919;-78
2022/06/26 04:46:15;;;;;;;0.70;0.60;;;18.40;99.90;;;;;;5113016;28;20953;-78
2022/06/26 04:48:42;;;;;;;0.80;0.80;;;18.30;99.90;;;;;;5113208;28;20524;-78
2022/06/26 04:51:09;;;;;;;1.07;0.97;;;18.30;99.90;;;;;;5112946;28;20480;-78
2022/06/26 04:53:37;;;;;;;1.27;0.57;;;18.30;99.90;;;;;;5113397;28;20470;-78
2022/06/26 04:56:04;;;;;;;0.50;0.30;;;18.30;99.90;;;;;;5113033;28;20454;-74
2022/06/26 04:58:31;;;;;;;4.97;1.47;;;18.30;99.90;;;;;;5112998;28;20445;-78
2022/06/26 05:00:58;;;;;;;3.33;1.13;;;18.40;99.90;;;;;;5113050;28;20465;-77
2022/06/26 05:03:26;;;;;;;1.80;1.70;;;18.40;99.90;;;;;;5115893;28;20804;-78
2022/06/26 05:05:53;;;;;;;0.50;0.40;;;18.40;99.90;;;;;;5113665;28;20525;-78
2022/06/26 05:08:20;;;;;;;0.70;0.50;;;18.40;99.90;;;;;;5113158;28;20473;-78
2022/06/26 05:10:47;;;;;;;0.50;0.40;;;18.40;99.90;;;;;;5113087;28;20509;-78
2022/06/26 05:13:14;;;;;;;0.50;0.40;;;18.40;99.90;;;;;;5113015;28;20533;-78
2022/06/26 05:15:41;;;;;;;0.80;0.77;;;18.30;99.90;;;;;;5113381;28;20517;-76
2022/06/26 05:18:08;;;;;;;0.80;0.80;;;18.30;99.90;;;;;;5112383;28;20445;-75
2022/06/26 05:20:36;;;;;;;0.50;0.30;;;18.30;99.90;;;;;;5111870;28;20472;-76
2022/06/26 05:23:03;;;;;;;0.50;0.37;;;18.30;99.90;;;;;;5111422;28;20430;-77
2022/06/26 05:25:30;;;;;;;0.60;0.60;;;18.30;99.90;;;;;;5112186;28;20477;-77
2022/06/26 05:27:57;;;;;;;1.63;1.53;;;18.20;99.90;;;;;;5112124;28;20442;-78
2022/06/26 05:30:24;;;;;;;0.60;0.60;;;18.20;99.90;;;;;;5112502;28;20507;-77
2022/06/26 05:32:51;;;;;;;1.47;0.77;;;18.20;99.90;;;;;;5112099;28;20437;-77
2022/06/26 05:35:18;;;;;;;0.50;0.33;;;18.20;99.90;;;;;;5112255;28;20525;-78
2022/06/26 05:37:46;;;;;;;0.50;0.40;;;18.20;99.90;;;;;;5111940;28;20445;-78
2022/06/26 05:40:13;;;;;;;0.50;0.30;;;18.30;99.90;;;;;;5111868;28;20537;-76
2022/06/26 05:42:40;;;;;;;0.50;0.40;;;18.40;99.90;;;;;;5112391;28;20512;-77
2022/06/26 05:45:08;;;;;;;0.70;0.70;;;18.50;99.90;;;;;;5111962;28;20441;-77
2022/06/26 05:47:35;;;;;;;0.50;0.30;;;18.50;99.90;;;;;;5111820;28;20524;-78
2022/06/26 05:50:02;;;;;;;1.73;0.70;;;18.60;99.90;;;;;;5112107;28;20557;-77
2022/06/26 05:52:29;;;;;;;0.60;0.43;;;18.70;99.90;;;;;;5112007;28;20565;-77
2022/06/26 05:54:57;;;;;;;0.50;0.30;;;18.90;99.90;;;;;;5111632;28;20840;-78
2022/06/26 05:57:25;;;;;;;0.83;0.80;;;19.00;99.90;;;;;;5111987;28;20525;-77
2022/06/26 05:59:52;;;;;;;0.50;0.50;;;19.20;99.90;;;;;;5166287;22;20474;-80
2022/06/26 06:02:19;;;;;;;0.50;0.30;;;19.40;99.90;;;;;;5058647;28;20462;-84
2022/06/26 06:04:46;;;;;;;0.50;0.30;;;19.70;99.90;;;;;;5065009;28;20479;-83
2022/06/26 06:07:12;;;;;;;0.70;0.70;;;19.90;99.90;;;;;;5080792;28;20527;-80
2022/06/26 06:09:39;;;;;;;1.33;1.33;;;20.00;99.90;;;;;;5086806;28;20452;-82
2022/06/26 06:12:08;;;;;;;1.27;1.17;;;19.90;99.90;;;;;;5085512;28;20471;-82
2022/06/26 06:14:36;;;;;;;1.33;0.50;;;19.80;99.90;;;;;;5077249;28;21000;-83
2022/06/26 06:19:44;;;;;;;0.60;0.50;;;19.30;99.90;;;;;;5074532;28;20428;-84
2022/06/26 06:22:11;;;;;;;0.50;0.40;;;19.30;99.90;;;;;;5075930;28;20436;-84
2022/06/26 06:24:38;;;;;;;0.90;0.90;;;19.30;99.90;;;;;;5076197;28;20467;-82
2022/06/26 06:27:06;;;;;;;6.43;1.63;;;19.20;99.90;;;;;;5075987;28;21037;-84
2022/06/26 06:29:33;;;;;;;0.50;0.30;;;19.20;99.90;;;;;;5078575;28;20522;-85
2022/06/26 06:32:00;;;;;;;0.80;0.80;;;19.20;99.90;;;;;;5076085;28;20562;-83
2022/06/26 06:34:27;;;;;;;0.60;0.50;;;19.20;99.90;;;;;;5076744;28;20885;-85
2022/06/26 06:36:54;;;;;;;2.00;1.27;;;19.10;99.90;;;;;;5080627;28;20493;-83
2022/06/26 06:39:21;;;;;;;0.83;0.80;;;19.10;99.90;;;;;;5079305;28;20469;-84
2022/06/26 06:41:48;;;;;;;0.50;0.33;;;19.00;99.90;;;;;;5079594;28;20539;-82
2022/06/26 06:44:16;;;;;;;0.50;0.40;;;19.10;99.90;;;;;;5079896;28;20530;-84
2022/06/26 06:46:43;;;;;;;0.87;0.87;;;19.20;99.90;;;;;;5079458;28;20431;-82
2022/06/26 06:49:10;;;;;;;0.50;0.40;;;19.40;99.90;;;;;;5078977;28;20451;-84
2022/06/26 06:51:37;;;;;;;0.50;0.30;;;19.60;99.90;;;;;;5079574;28;20563;-84
2022/06/26 06:54:04;;;;;;;0.50;0.30;;;20.20;99.90;;;;;;5079249;28;20941;-85
2022/06/26 06:56:31;;;;;;;4.00;1.57;;;21.20;99.90;;;;;;5079765;28;20471;-85
2022/06/26 06:58:58;;;;;;;0.50;0.30;;;21.90;99.90;;;;;;5079878;28;20527;-85
2022/06/26 07:01:26;;;;;;;0.50;0.30;;;22.10;99.90;;;;;;5080143;28;20893;-85
2022/06/26 07:03:53;;;;;;;0.50;0.30;;;22.10;99.90;;;;;;5079656;28;20442;-84
2022/06/26 07:06:20;;;;;;;9.60;0.70;;;21.90;99.90;;;;;;5079846;28;20547;-84
2022/06/26 07:08:47;;;;;;;0.60;0.60;;;21.30;99.90;;;;;;5079780;28;20497;-83
2022/06/26 07:11:14;;;;;;;0.50;0.40;;;21.30;99.90;;;;;;5079957;28;20470;-85
2022/06/26 07:13:41;;;;;;;0.50;0.30;;;22.40;99.90;;;;;;5080295;28;20524;-84
2022/06/26 07:16:07;;;;;;;0.50;0.30;;;24.10;99.90;;;;;;5080370;28;20458;-84
2022/06/26 07:18:36;;;;;;;0.50;0.50;;;25.40;99.90;;;;;;5079798;28;21020;-84
2022/06/26 07:21:03;;;;;;;3.27;2.60;;;25.60;99.90;;;;;;5079784;28;20995;-85
2022/06/26 07:23:30;;;;;;;0.80;0.77;;;25.70;99.90;;;;;;5079110;28;20498;-85
2022/06/26 07:25:57;;;;;;;0.50;0.30;;;25.90;99.90;;;;;;5079851;28;20478;-85
2022/06/26 07:28:24;;;;;;;0.50;0.40;;;26.80;99.90;;;;;;5079809;28;20859;-85
2022/06/26 07:30:51;;;;;;;0.50;0.40;;;27.10;99.90;;;;;;5079703;28;20455;-85
2022/06/26 07:36:04;;;;;;;0.70;0.60;;;28.30;99.90;;;;;;5079862;28;20459;-85
2022/06/26 07:38:31;;;;;;;0.50;0.30;;;28.30;96.30;;;;;;5079919;28;20444;-84
2022/06/26 07:40:58;;;;;;;0.50;0.30;;;28.20;93.30;;;;;;5079905;28;20464;-85
2022/06/26 07:43:25;;;;;;;0.70;0.67;;;28.80;92.80;;;;;;5080148;28;20527;-85
2022/06/26 07:45:52;;;;;;;0.50;0.30;;;29.50;88.50;;;;;;5078641;28;20532;-81
2022/06/26 07:48:19;;;;;;;0.50;0.30;;;30.00;91.00;;;;;;5079998;28;20482;-85
2022/06/26 07:50:46;;;;;;;0.50;0.40;;;31.80;80.40;;;;;;5079896;28;20492;-83
2022/06/26 07:53:15;;;;;;;0.50;0.30;;;31.40;72.90;;;;;;5080343;28;20476;-85
2022/06/26 07:55:42;;;;;;;0.53;0.37;;;30.40;75.30;;;;;;5079712;28;20441;-83
2022/06/26 07:58:09;;;;;;;0.50;0.30;;;30.20;74.50;;;;;;5078884;28;20933;-84
2022/06/26 08:00:36;;;;;;;0.50;0.40;;;29.60;77.10;;;;;;5078851;28;20905;-84
2022/06/26 08:03:05;;;;;;;0.50;0.30;;;29.00;76.80;;;;;;5079543;28;20443;-85
2022/06/26 08:05:32;;;;;;;0.50;0.30;;;27.50;81.60;;;;;;5079195;28;20440;-87
2022/06/26 08:07:59;;;;;;;0.50;0.33;;;27.00;86.00;;;;;;5078579;28;20519;-85
2022/06/26 08:10:27;;;;;;;0.50;0.40;;;26.60;90.70;;;;;;5079116;28;20522;-83
2022/06/26 08:12:55;;;;;;;0.50;0.30;;;27.40;90.40;;;;;;5079432;28;20717;-84
2022/06/26 08:15:22;;;;;;;0.50;0.40;;;29.40;88.30;;;;;;5079352;28;20464;-85
2022/06/26 08:17:48;;;;;;;0.50;0.30;;;31.10;77.40;;;;;;5079097;28;20523;-85
2022/06/26 08:20:15;;;;;;;0.60;0.50;;;31.10;73.30;;;;;;5079234;28;20890;-85
2022/06/26 08:22:42;;;;;;;0.50;0.30;;;30.50;74.40;;;;;;5079371;28;20795;-85
2022/06/26 08:25:10;;;;;;;0.50;0.30;;;29.80;76.20;;;;;;5080414;28;20508;-83
2022/06/26 08:27:38;;;;;;;0.80;0.80;;;29.30;74.50;;;;;;5080715;28;20741;-83
2022/06/26 08:30:06;;;;;;;0.50;0.40;;;28.50;77.10;;;;;;5080260;28;20739;-84
2022/06/26 08:32:33;;;;;;;0.60;0.50;;;27.10;82.20;;;;;;5078608;28;20476;-85
2022/06/26 08:35:00;;;;;;;0.50;0.30;;;26.40;85.80;;;;;;5079029;28;20475;-84
2022/06/26 08:37:27;;;;;;;0.50;0.40;;;26.00;90.20;;;;;;5078641;28;20432;-84
2022/06/26 08:39:54;;;;;;;2.90;1.03;;;26.10;93.30;;;;;;5080150;28;20459;-84
2022/06/26 08:42:23;;;;;;;0.60;0.50;;;25.90;98.50;;;;;;5091850;28;20467;-83
2022/06/26 08:44:52;;;;;;;1.03;1.03;;;25.80;97.70;;;;;;5089663;28;20432;-81
2022/06/26 08:47:22;;;;;;;0.50;0.37;;;26.10;99.30;;;;;;5083509;28;20479;-83
2022/06/26 08:49:49;;;;;;;0.50;0.30;;;26.60;97.20;;;;;;5078554;28;20432;-84
2022/06/26 08:52:20;;;;;;;0.50;0.30;;;27.50;98.10;;;;;;5078494;28;20474;-84
2022/06/26 08:54:47;;;;;;;0.50;0.30;;;29.20;91.30;;;;;;5079173;28;20488;-84
2022/06/26 08:57:15;;;;;;;0.50;0.40;;;30.60;85.80;;;;;;5079211;28;20976;-84
2022/06/26 08:59:43;;;;;;;0.50;0.40;;;31.10;78.10;;;;;;5079283;28;20444;-83
2022/06/26 09:02:12;;;;;;;0.50;0.30;;;32.10;73.80;;;;;;5079954;28;20518;-83
2022/06/26 09:04:39;;;;;;;0.50;0.40;;;32.10;70.00;;;;;;5078966;28;20505;-84
2022/06/26 09:07:07;;;;;;;0.50;0.30;;;31.40;70.40;;;;;;5078505;28;20546;-84
2022/06/26 09:09:38;;;;;;;0.60;0.50;;;30.50;73.20;;;;;;5078501;28;20455;-85
2022/06/26 09:12:06;;;;;;;0.50;0.30;;;29.80;73.80;;;;;;5078210;28;20883;-83
2022/06/26 09:14:33;;;;;;;0.50;0.30;;;28.90;76.80;;;;;;5079569;28;20503;-85
2022/06/26 09:17:01;;;;;;;0.50;0.43;;;28.60;79.60;;;;;;5096958;28;20422;-88
2022/06/26 09:19:33;;;;;;;0.50;0.30;;;29.40;76.40;;;;;;5083926;28;20460;-85
2022/06/26 09:22:08;;;;;;;0.50;0.30;;;29.90;77.70;;;;;;5080323;28;20461;-85
2022/06/26 09:24:37;;;;;;;0.50;0.30;;;30.50;78.20;;;;;;5080310;28;20511;-85
2022/06/26 09:27:06;;;;;;;0.50;0.30;;;31.30;69.80;;;;;;5079384;28;20836;-85
2022/06/26 09:29:33;;;;;;;0.50;0.30;;;31.40;69.10;;;;;;5079559;28;21049;-85
2022/06/26 09:32:12;;;;;;;0.50;0.40;;;32.10;68.80;;;;;;5079387;28;20476;-84
2022/06/26 09:34:44;;;;;;;0.50;0.30;;;31.70;66.90;;;;;;5079955;28;20946;-81
2022/06/26 09:37:11;;;;;;;0.77;0.77;;;31.50;68.70;;;;;;5080408;28;20470;-84
2022/06/26 09:39:38;;;;;;;0.50;0.40;;;32.70;66.10;;;;;;5079534;28;20499;-85
2022/06/26 09:42:17;;;;;;;0.83;0.80;;;33.40;66.20;;;;;;5079660;28;20540;-85
2022/06/26 09:44:45;;;;;;;1.50;0.40;;;33.00;61.40;;;;;;5079932;28;20423;-85
2022/06/26 09:47:26;;;;;;;0.50;0.30;;;31.40;62.00;;;;;;5079002;28;20444;-84
2022/06/26 09:49:56;;;;;;;0.50;0.30;;;30.40;66.10;;;;;;5078810;28;20518;-85
2022/06/26 09:52:24;;;;;;;0.50;0.30;;;29.80;66.90;;;;;;5078649;28;20539;-84
2022/06/26 09:54:53;;;;;;;0.50;0.30;;;29.20;67.60;;;;;;5078682;28;20515;-82
2022/06/26 09:57:20;;;;;;;0.50;0.40;;;29.10;70.70;;;;;;5078455;28;20528;-85
2022/06/26 09:59:47;;;;;;;0.50;0.40;;;29.10;68.70;;;;;;5078351;28;21011;-83
2022/06/26 10:07:49;;;;;;;0.50;0.30;;;28.60;70.20;;;;;;5077565;28;20523;-84
2022/06/26 10:10:18;;;;;;;0.50;0.30;;;28.10;71.30;;;;;;5077231;28;20457;-84
2022/06/26 10:12:48;;;;;;;0.50;0.30;;;28.00;70.40;;;;;;5077998;28;21120;-85
2022/06/26 10:15:17;;;;;;;0.50;0.30;;;28.30;71.90;;;;;;5079140;28;20440;-86
2022/06/26 10:18:00;;;;;;;0.50;0.30;;;29.80;71.50;;;;;;5078464;28;20490;-85
2022/06/26 10:20:31;;;;;;;0.50;0.30;;;31.60;67.80;;;;;;5079190;28;20551;-86
2022/06/26 10:22:57;;;;;;;0.97;0.70;;;32.60;63.60;;;;;;5079398;28;20503;-85
2022/06/26 10:25:26;;;;;;;0.50;0.30;;;32.80;65.30;;;;;;5078451;28;20466;-86
2022/06/26 10:27:53;;;;;;;0.70;0.43;;;34.20;61.10;;;;;;5077710;28;20436;-85
2022/06/26 10:30:21;;;;;;;0.50;0.30;;;34.40;56.40;;;;;;5078603;28;20471;-85
2022/06/26 10:33:07;;;;;;;0.50;0.30;;;33.80;56.90;;;;;;5078987;28;20493;-81
2022/06/26 10:35:40;;;;;;;0.50;0.30;;;33.30;57.40;;;;;;5079168;28;20421;-84
2022/06/26 10:38:24;;;;;;;0.50;0.30;;;31.30;59.40;;;;;;5077600;28;20490;-84
2022/06/26 10:44:01;;;;;;;0.50;0.40;;;29.40;66.10;;;;;;5076961;28;20422;-82
2022/06/26 10:46:37;;;;;;;0.50;0.30;;;28.60;66.70;;;;;;5077720;28;20436;-81
2022/06/26 10:49:07;;;;;;;0.50;0.40;;;27.80;68.70;;;;;;5078366;28;20813;-83
2022/06/26 10:51:40;;;;;;;1.60;1.50;;;27.40;70.40;;;;;;5076969;28;20923;-85
2022/06/26 10:54:19;;;;;;;0.50;0.30;;;27.10;73.10;;;;;;5076189;28;20525;-84
2022/06/26 10:56:46;;;;;;;0.50;0.30;;;26.40;71.70;;;;;;5077270;28;20454;-84
2022/06/26 10:59:18;;;;;;;0.50;0.30;;;25.80;75.40;;;;;;5076519;28;20462;-84
2022/06/26 11:01:45;;;;;;;0.50;0.30;;;25.80;79.70;;;;;;5076874;28;20471;-84
2022/06/26 11:04:12;;;;;;;0.50;0.30;;;25.70;80.10;;;;;;5076488;28;20432;-84
2022/06/26 11:06:41;;;;;;;0.50;0.40;;;25.40;80.20;;;;;;5078900;28;20436;-86
2022/06/26 11:09:09;;;;;;;0.50;0.40;;;25.30;81.50;;;;;;5076283;28;20440;-84
2022/06/26 11:11:37;;;;;;;0.50;0.30;;;25.20;84.90;;;;;;5078727;28;20528;-85
2022/06/26 11:14:06;;;;;;;0.50;0.33;;;24.90;90.30;;;;;;5076343;28;20476;-82
2022/06/26 11:16:35;;;;;;;0.50;0.30;;;24.90;90.30;;;;;;5075728;28;20810;-84
2022/06/26 11:19:05;;;;;;;0.50;0.40;;;25.10;91.10;;;;;;5075168;28;20436;-84
2022/06/26 11:21:32;;;;;;;0.50;0.30;;;25.20;90.30;;;;;;5077290;28;21061;-84
2022/06/26 11:24:02;;;;;;;0.50;0.30;;;25.20;91.50;;;;;;5079265;28;20812;-86
2022/06/26 11:26:29;;;;;;;0.50;0.40;;;25.30;91.40;;;;;;5079434;28;20450;-85
2022/06/26 11:28:57;;;;;;;0.50;0.40;;;25.30;90.60;;;;;;5078953;28;20996;-86
2022/06/26 11:31:26;;;;;;;0.50;0.30;;;25.20;91.70;;;;;;5079423;28;20528;-86
2022/06/26 11:33:53;;;;;;;0.50;0.30;;;25.00;91.70;;;;;;5078584;28;20474;-83
2022/06/26 11:36:22;;;;;;;0.50;0.30;;;25.40;99.50;;;;;;5079102;28;20843;-86
2022/06/26 11:38:53;;;;;;;0.50;0.30;;;25.60;93.30;;;;;;5078853;28;20447;-86
2022/06/26 11:41:22;;;;;;;0.50;0.30;;;25.90;93.10;;;;;;5079154;28;20467;-83
2022/06/26 11:43:50;;;;;;;0.50;0.30;;;26.20;91.90;;;;;;5079733;28;20993;-85
2022/06/26 11:46:18;;;;;;;0.87;0.50;;;26.20;91.20;;;;;;5079441;28;20527;-86
2022/06/26 11:48:46;;;;;;;0.50;0.30;;;26.30;91.00;;;;;;5078439;28;20491;-85
2022/06/26 11:51:14;;;;;;;0.50;0.30;;;25.80;89.00;;;;;;5078843;28;20452;-85
2022/06/26 11:53:45;;;;;;;0.50;0.30;;;25.80;91.40;;;;;;5078944;28;20484;-86
2022/06/26 11:56:18;;;;;;;0.50;0.30;;;25.50;90.70;;;;;;5078712;28;20440;-86
2022/06/26 11:58:50;;;;;;;0.60;0.60;;;25.30;91.60;;;;;;5078446;28;20432;-85
2022/06/26 12:01:17;;;;;;;0.50;0.40;;;24.90;91.90;;;;;;5132669;22;20965;-79
2022/06/26 12:03:54;;;;;;;5.10;0.70;;;24.60;93.30;;;;;;5076970;28;20434;-79
2022/06/26 12:06:32;;;;;;;0.50;0.40;;;24.70;97.40;;;;;;5088956;28;20439;-79
2022/06/26 12:08:59;;;;;;;0.50;0.30;;;24.50;94.70;;;;;;5097224;28;20419;-81
2022/06/26 12:11:27;;;;;;;0.60;0.60;;;24.50;95.30;;;;;;5095606;28;21067;-78
2022/06/26 12:13:55;;;;;;;0.83;0.80;;;24.30;99.10;;;;;;5095164;28;20875;-80
2022/06/26 12:16:22;;;;;;;0.50;0.40;;;23.90;99.40;;;;;;5095015;28;20538;-80
2022/06/26 12:18:50;;;;;;;0.50;0.40;;;23.60;99.90;;;;;;5094866;28;20451;-81
2022/06/26 12:21:18;;;;;;;0.50;0.30;;;23.50;99.90;;;;;;5095247;28;20467;-79
2022/06/26 12:23:47;;;;;;;0.50;0.30;;;23.40;99.90;;;;;;5094736;28;21257;-83
2022/06/26 12:26:17;;;;;;;0.50;0.37;;;23.30;99.90;;;;;;5094631;28;20445;-78
2022/06/26 12:28:47;;;;;;;0.50;0.47;;;23.40;99.90;;;;;;5095023;28;20912;-80
2022/06/26 12:31:17;;;;;;;0.50;0.40;;;23.30;99.90;;;;;;5094723;28;20489;-81
2022/06/26 12:33:44;;;;;;;0.50;0.37;;;23.20;99.90;;;;;;5093873;28;20562;-81
2022/06/26 12:36:11;;;;;;;0.50;0.30;;;23.20;99.90;;;;;;5095178;28;20442;-80
2022/06/26 12:38:39;;;;;;;0.50;0.40;;;23.10;99.90;;;;;;5094490;28;20471;-80
2022/06/26 12:41:16;;;;;;;0.50;0.30;;;23.10;99.90;;;;;;5094461;28;20534;-80
2022/06/26 12:43:44;;;;;;;0.50;0.30;;;22.90;99.90;;;;;;5095411;28;20434;-81
2022/06/26 12:46:10;;;;;;;0.50;0.30;;;22.80;99.90;;;;;;5095587;28;20522;-80
2022/06/26 12:48:39;;;;;;;0.63;0.63;;;22.70;99.90;;;;;;5094150;28;20523;-80
2022/06/26 12:51:06;;;;;;;0.50;0.40;;;22.60;99.90;;;;;;5094705;28;20447;-79
2022/06/26 12:53:33;;;;;;;1.17;1.07;;;22.50;99.90;;;;;;5094746;28;20486;-81
2022/06/26 12:56:00;;;;;;;0.50;0.40;;;22.50;99.90;;;;;;5094604;28;20446;-83
2022/06/26 12:58:27;;;;;;;1.63;1.53;;;22.50;99.90;;;;;;5094074;28;20538;-80
2022/06/26 13:00:54;;;;;;;0.50;0.30;;;22.50;99.90;;;;;;5094142;28;20442;-82
2022/06/26 13:03:21;;;;;;;0.50;0.30;;;22.50;99.90;;;;;;5094676;28;20518;-80
2022/06/26 13:05:49;;;;;;;0.50;0.30;;;22.70;99.90;;;;;;5094503;28;20844;-78
2022/06/26 13:08:17;;;;;;;0.50;0.30;;;23.00;99.90;;;;;;5094006;28;20577;-82
2022/06/26 13:10:45;;;;;;;1.47;1.17;;;23.10;99.90;;;;;;5094622;28;20450;-79